createdAt,value
2018-06-15T00:00:16.919Z,10.93
2018-06-15T00:02:49.437Z,9.37
2018-06-15T00:05:17.780Z,12.17
2018-06-15T00:07:46.165Z,9.17
2018-06-15T00:10:14.535Z,12.13
2018-06-15T00:12:42.940Z,11.60
2018-06-15T00:15:11.347Z,9.87
2018-06-15T00:17:39.735Z,12.37
2018-06-15T00:20:08.116Z,10.57
2018-06-15T00:22:36.549Z,11.23
2018-06-15T00:25:04.943Z,13.43
2018-06-15T00:27:33.288Z,9.10
2018-06-15T00:30:01.767Z,9.13
2018-06-15T00:32:30.175Z,11.80
2018-06-15T00:34:58.607Z,10.60
2018-06-15T00:37:27.027Z,9.87
2018-06-15T00:39:55.387Z,12.17
2018-06-15T00:42:23.851Z,8.77
2018-06-15T00:44:52.196Z,9.40
2018-06-15T00:47:20.599Z,8.33
2018-06-15T00:49:48.935Z,9.90
2018-06-15T00:52:17.335Z,9.50
2018-06-15T00:54:45.705Z,10.93
2018-06-15T00:57:25.411Z,9.87
2018-06-15T00:59:53.755Z,10.80
2018-06-15T01:02:22.155Z,9.60
2018-06-15T01:04:50.515Z,10.87
2018-06-15T01:07:18.989Z,9.53
2018-06-15T01:09:47.361Z,8.60
2018-06-15T01:12:15.799Z,9.00
2018-06-15T01:14:44.282Z,8.57
2018-06-15T01:17:12.689Z,8.60
2018-06-15T01:19:41.140Z,12.60
2018-06-15T01:22:09.490Z,9.80
2018-06-15T01:24:37.971Z,7.73
2018-06-15T01:27:06.392Z,11.33
2018-06-15T01:29:34.734Z,9.33
2018-06-15T01:32:03.017Z,8.27
2018-06-15T01:34:31.433Z,11.63
2018-06-15T01:36:59.835Z,6.57
2018-06-15T01:39:28.239Z,11.23
2018-06-15T01:41:56.604Z,9.43
2018-06-15T01:44:24.995Z,8.57
2018-06-15T01:46:53.450Z,8.80
2018-06-15T01:49:21.797Z,8.83
2018-06-15T01:51:50.263Z,7.33
2018-06-15T01:54:18.653Z,8.93
2018-06-15T01:56:47.068Z,11.07
2018-06-15T01:59:15.676Z,8.87
2018-06-15T02:01:44.052Z,8.67
2018-06-15T02:04:12.419Z,10.13
2018-06-15T02:06:40.863Z,11.67
2018-06-15T02:09:10.053Z,8.87
2018-06-15T02:11:38.411Z,8.60
2018-06-15T02:14:06.901Z,12.90
2018-06-15T02:16:35.295Z,9.27
2018-06-15T02:19:03.772Z,10.07
2018-06-15T02:21:32.191Z,12.20
2018-06-15T02:24:00.568Z,8.57
2018-06-15T02:26:29.009Z,8.43
2018-06-15T02:28:57.380Z,9.07
2018-06-15T02:31:25.730Z,10.13
2018-06-15T02:33:54.290Z,9.83
2018-06-15T02:36:22.632Z,9.37
2018-06-15T02:38:51.036Z,11.70
2018-06-15T02:41:19.524Z,8.87
2018-06-15T02:43:47.907Z,8.87
2018-06-15T02:46:16.300Z,9.13
2018-06-15T02:48:44.622Z,8.93
2018-06-15T02:51:13.023Z,11.03
2018-06-15T02:53:41.424Z,9.33
2018-06-15T02:56:09.918Z,12.10
2018-06-15T02:58:38.242Z,10.40
2018-06-15T03:01:06.640Z,9.13
2018-06-15T03:03:35.171Z,14.73
2018-06-15T03:06:03.599Z,11.27
2018-06-15T03:08:31.979Z,13.37
2018-06-15T03:11:00.373Z,10.40
2018-06-15T03:13:28.748Z,11.03
2018-06-15T03:15:57.324Z,12.03
2018-06-15T03:18:25.668Z,9.63
2018-06-15T03:20:54.043Z,12.83
2018-06-15T03:23:22.471Z,11.97
2018-06-15T03:25:50.820Z,11.93
2018-06-15T03:28:19.217Z,10.30
2018-06-15T03:30:47.600Z,10.53
2018-06-15T03:33:16.029Z,10.70
2018-06-15T03:35:44.424Z,13.77
2018-06-15T03:38:12.823Z,12.30
2018-06-15T03:40:41.285Z,10.53
2018-06-15T03:43:09.652Z,9.67
2018-06-15T03:45:38.088Z,11.93
2018-06-15T03:48:06.484Z,12.93
2018-06-15T03:50:34.831Z,9.50
2018-06-15T03:53:03.265Z,10.17
2018-06-15T03:55:31.669Z,11.33
2018-06-15T03:58:00.120Z,10.90
2018-06-15T04:00:28.581Z,15.10
2018-06-15T04:02:56.915Z,11.27
2018-06-15T04:05:25.350Z,13.43
2018-06-15T04:07:53.820Z,11.07
2018-06-15T04:10:22.169Z,10.97
2018-06-15T04:12:50.554Z,12.13
2018-06-15T04:15:18.958Z,12.30
2018-06-15T04:17:51.550Z,11.13
2018-06-15T04:20:19.891Z,12.10
2018-06-15T04:22:48.336Z,11.37
2018-06-15T04:25:16.887Z,13.57
2018-06-15T04:27:45.397Z,15.67
2018-06-15T04:30:13.768Z,12.43
2018-06-15T04:32:43.137Z,13.97
2018-06-15T04:35:11.507Z,12.50
2018-06-15T04:37:40.039Z,14.40
2018-06-15T04:40:08.434Z,13.90
2018-06-15T04:42:36.837Z,14.37
2018-06-15T04:45:05.631Z,13.67
2018-06-15T04:47:34.045Z,19.53
2018-06-15T04:50:02.487Z,12.90
2018-06-15T04:52:37.331Z,16.07
2018-06-15T04:55:06.311Z,13.07
2018-06-15T04:57:34.719Z,14.77
2018-06-15T05:00:03.207Z,15.53
2018-06-15T05:02:31.601Z,13.57
2018-06-15T05:05:00.602Z,14.97
2018-06-15T05:07:29.181Z,14.37
2018-06-15T05:09:57.823Z,15.50
2018-06-15T05:12:26.179Z,14.40
2018-06-15T05:14:54.688Z,14.83
2018-06-15T05:17:23.119Z,16.53
2018-06-15T05:19:51.532Z,14.13
2018-06-15T05:22:19.871Z,13.17
2018-06-15T05:24:48.328Z,15.87
2018-06-15T05:27:16.694Z,14.53
2018-06-15T05:29:45.092Z,14.93
2018-06-15T05:32:13.501Z,13.73
2018-06-15T05:34:41.874Z,15.43
2018-06-15T05:37:10.263Z,16.87
2018-06-15T05:39:38.651Z,14.80
2018-06-15T05:42:07.044Z,12.17
2018-06-15T05:44:36.655Z,13.37
2018-06-15T05:47:05.147Z,13.53
2018-06-15T05:49:33.671Z,13.83
2018-06-15T05:52:02.116Z,15.53
2018-06-15T05:54:30.535Z,14.90
2018-06-15T05:56:58.961Z,12.73
2018-06-15T05:59:27.388Z,13.97
2018-06-15T06:01:55.827Z,12.90
2018-06-15T06:04:24.211Z,16.30
2018-06-15T06:06:52.629Z,15.13
2018-06-15T06:09:21.002Z,15.43
2018-06-15T06:11:49.387Z,16.10
2018-06-15T06:14:17.807Z,18.20
2018-06-15T06:16:46.202Z,13.97
2018-06-15T06:19:14.615Z,18.83
2018-06-15T06:21:43.057Z,15.00
2018-06-15T06:24:11.448Z,15.40
2018-06-15T06:26:39.854Z,19.53
2018-06-15T06:29:08.328Z,16.23
2018-06-15T06:31:36.929Z,16.23
2018-06-15T06:34:05.315Z,21.90
2018-06-15T06:36:33.797Z,22.43
2018-06-15T06:39:02.249Z,18.53
2018-06-15T06:41:30.647Z,19.87
2018-06-15T06:43:59.114Z,20.77
2018-06-15T06:46:27.639Z,20.90
2018-06-15T06:48:56.092Z,19.53
2018-06-15T06:51:24.513Z,19.90
2018-06-15T06:53:52.930Z,24.20
2018-06-15T06:56:21.308Z,25.87
2018-06-15T06:58:49.776Z,21.67
2018-06-15T07:01:18.504Z,17.40
2018-06-15T07:03:46.984Z,22.20
2018-06-15T07:06:15.470Z,24.30
2018-06-15T07:08:44.413Z,22.83
2018-06-15T07:11:12.920Z,18.87
2018-06-15T07:13:41.371Z,23.33
2018-06-15T07:16:09.694Z,23.67
2018-06-15T07:18:38.164Z,23.70
2018-06-15T07:21:06.629Z,22.57
2018-06-15T07:23:35.062Z,18.93
2018-06-15T07:26:03.693Z,19.63
2018-06-15T07:28:32.068Z,23.27
2018-06-15T07:31:00.707Z,18.93
2018-06-15T07:33:29.188Z,20.43
2018-06-15T07:35:57.607Z,19.17
2018-06-15T07:38:26.179Z,19.23
2018-06-15T07:40:54.568Z,15.53
2018-06-15T07:43:28.679Z,18.20
2018-06-15T07:45:57.267Z,19.27
2018-06-15T07:48:25.683Z,16.63
2018-06-15T07:50:54.066Z,16.07
2018-06-15T07:53:22.492Z,19.17
2018-06-15T07:55:51.028Z,19.97
2018-06-15T07:58:19.438Z,18.57
2018-06-15T08:00:47.859Z,17.60
2018-06-15T08:03:16.527Z,19.67
2018-06-15T08:05:44.970Z,20.10
2018-06-15T08:08:13.859Z,18.70
2018-06-15T08:10:42.243Z,17.97
2018-06-15T08:13:10.635Z,19.60
2018-06-15T08:15:39.055Z,20.07
2018-06-15T08:18:07.451Z,22.57
2018-06-15T08:20:35.851Z,17.10
2018-06-15T08:23:04.265Z,17.43
2018-06-15T08:25:32.648Z,18.33
2018-06-15T08:28:01.044Z,16.13
2018-06-15T08:30:46.250Z,17.47
2018-06-15T08:36:01.616Z,17.00
2018-06-15T08:38:30.009Z,18.27
2018-06-15T08:40:58.414Z,18.83
2018-06-15T08:43:26.743Z,17.67
2018-06-15T08:45:55.121Z,19.93
2018-06-15T08:48:23.571Z,19.23
2018-06-15T08:50:51.951Z,17.40
2018-06-15T08:53:20.328Z,18.97
2018-06-15T08:55:48.809Z,16.00
2018-06-15T08:58:17.301Z,18.70
2018-06-15T09:00:45.668Z,18.93
2018-06-15T09:03:14.080Z,16.90
2018-06-15T09:05:42.646Z,16.13
2018-06-15T09:08:11.087Z,16.93
2018-06-15T09:10:39.502Z,14.97
2018-06-15T09:13:08.189Z,17.60
2018-06-15T09:15:36.598Z,13.87
2018-06-15T09:18:05.364Z,15.43
2018-06-15T09:20:34.211Z,11.60
2018-06-15T09:23:02.610Z,12.77
2018-06-15T09:25:31.951Z,13.27
2018-06-15T09:28:00.389Z,11.93
2018-06-15T09:30:28.787Z,11.00
2018-06-15T09:32:57.252Z,11.80
2018-06-15T09:35:25.625Z,11.77
2018-06-15T09:37:54.035Z,11.77
2018-06-15T09:40:22.450Z,11.37
2018-06-15T09:42:50.863Z,12.63
2018-06-15T09:45:19.291Z,10.97
2018-06-15T09:47:47.703Z,11.60
2018-06-15T09:50:16.070Z,10.03
2018-06-15T09:52:44.450Z,9.33
2018-06-15T09:55:12.823Z,9.37
2018-06-15T09:57:41.148Z,11.10
2018-06-15T10:00:09.523Z,13.17
2018-06-15T10:02:38.000Z,9.27
2018-06-15T10:05:06.369Z,10.20
2018-06-15T10:07:34.727Z,9.63
2018-06-15T10:10:03.049Z,7.67
2018-06-15T10:12:31.460Z,9.40
2018-06-15T10:14:59.819Z,9.33
2018-06-15T10:17:28.619Z,8.47
2018-06-15T10:19:57.040Z,8.27
2018-06-15T10:22:25.444Z,12.63
2018-06-15T10:24:53.807Z,10.93
2018-06-15T10:27:22.301Z,9.97
2018-06-15T10:29:50.643Z,10.10
2018-06-15T10:32:19.042Z,9.70
2018-06-15T10:34:47.424Z,8.10
2018-06-15T10:37:15.803Z,8.87
2018-06-15T10:39:44.215Z,8.67
2018-06-15T10:42:12.567Z,7.20
2018-06-15T10:44:40.999Z,7.60
2018-06-15T10:47:09.433Z,7.17
2018-06-15T10:49:37.812Z,8.00
2018-06-15T10:52:06.272Z,9.10
2018-06-15T10:54:34.679Z,7.00
2018-06-15T10:57:03.065Z,8.63
2018-06-15T10:59:31.480Z,6.37
2018-06-15T11:01:59.875Z,5.20
2018-06-15T11:04:28.717Z,6.63
2018-06-15T11:06:57.223Z,5.27
2018-06-15T11:09:25.743Z,5.83
2018-06-15T11:11:54.149Z,5.23
2018-06-15T11:14:22.648Z,5.23
2018-06-15T11:16:51.001Z,5.70
2018-06-15T11:19:19.348Z,5.70
2018-06-15T11:21:47.775Z,4.77
2018-06-15T11:24:16.155Z,5.00
2018-06-15T11:26:44.551Z,6.57
2018-06-15T11:29:12.883Z,5.27
2018-06-15T11:31:41.292Z,5.23
2018-06-15T11:34:09.651Z,6.30
2018-06-15T11:36:38.070Z,5.70
2018-06-15T11:39:08.556Z,6.00
2018-06-15T11:41:36.984Z,6.17
2018-06-15T11:44:05.875Z,4.87
2018-06-15T11:46:34.272Z,8.13
2018-06-15T11:49:02.753Z,5.63
2018-06-15T11:51:31.140Z,4.90
2018-06-15T11:53:59.543Z,4.40
2018-06-15T11:56:27.947Z,4.30
2018-06-15T11:58:56.348Z,4.37
2018-06-15T12:01:24.751Z,4.27
2018-06-15T12:03:53.111Z,4.10
2018-06-15T12:06:22.055Z,3.63
2018-06-15T12:08:50.463Z,5.37
2018-06-15T12:11:18.811Z,7.10
2018-06-15T12:13:47.205Z,4.87
2018-06-15T12:16:15.659Z,5.30
2018-06-15T12:18:43.999Z,5.30
2018-06-15T12:21:12.384Z,6.83
2018-06-15T12:23:40.697Z,5.23
2018-06-15T12:26:09.112Z,8.73
2018-06-15T12:28:37.520Z,5.27
2018-06-15T12:31:06.031Z,6.40
2018-06-15T12:33:34.443Z,4.67
2018-06-15T12:36:02.857Z,5.40
2018-06-15T12:38:31.630Z,4.80
2018-06-15T12:41:00.044Z,4.30
2018-06-15T12:43:28.443Z,4.07
2018-06-15T12:45:57.158Z,4.93
2018-06-15T12:48:25.497Z,4.40
2018-06-15T12:50:53.990Z,4.33
2018-06-15T12:53:22.446Z,7.00
2018-06-15T12:55:51.031Z,6.07
2018-06-15T12:58:19.537Z,4.50
2018-06-15T13:00:48.042Z,5.43
2018-06-15T13:03:16.460Z,7.27
2018-06-15T13:05:44.786Z,5.73
2018-06-15T13:08:13.184Z,4.40
2018-06-15T13:10:41.580Z,10.07
2018-06-15T13:13:09.909Z,9.33
2018-06-15T13:15:38.969Z,5.60
2018-06-15T13:18:07.480Z,4.10
2018-06-15T13:20:35.916Z,4.97
2018-06-15T13:23:04.339Z,3.80
2018-06-15T13:25:32.997Z,4.67
2018-06-15T13:28:01.353Z,4.47
2018-06-15T13:30:29.910Z,4.17
2018-06-15T13:32:58.588Z,4.10
2018-06-15T13:35:27.135Z,4.27
2018-06-15T13:37:55.606Z,4.00
2018-06-15T13:40:23.966Z,6.23
2018-06-15T13:42:52.269Z,4.80
2018-06-15T13:45:20.648Z,5.03
2018-06-15T13:47:49.022Z,3.83
2018-06-15T13:50:17.411Z,5.73
2018-06-15T13:52:45.806Z,4.27
2018-06-15T13:55:14.171Z,3.93
2018-06-15T13:57:42.746Z,4.63
2018-06-15T14:00:11.224Z,4.70
2018-06-15T14:02:39.633Z,4.17
2018-06-15T14:05:08.097Z,4.33
2018-06-15T14:07:36.535Z,5.60
2018-06-15T14:10:05.225Z,4.27
2018-06-15T14:12:33.707Z,3.43
2018-06-15T14:15:02.215Z,4.60
2018-06-15T14:17:30.692Z,4.77
2018-06-15T14:19:59.064Z,3.50
2018-06-15T14:22:27.558Z,4.40
2018-06-15T14:24:56.056Z,4.87
2018-06-15T14:27:24.519Z,3.93
2018-06-15T14:29:53.006Z,2.50
2018-06-15T14:32:21.409Z,3.87
2018-06-15T14:34:49.825Z,7.10
2018-06-15T14:37:18.224Z,4.10
2018-06-15T14:39:47.886Z,3.40
2018-06-15T14:42:16.329Z,3.13
2018-06-15T14:44:44.785Z,3.47
2018-06-15T14:47:13.301Z,3.70
2018-06-15T14:49:41.867Z,4.83
2018-06-15T14:52:10.366Z,4.33
2018-06-15T14:54:39.455Z,4.67
2018-06-15T14:57:07.921Z,4.77
2018-06-15T14:59:36.300Z,4.80
2018-06-15T15:02:04.925Z,4.87
2018-06-15T15:04:33.427Z,7.27
2018-06-15T15:07:01.843Z,4.43
2018-06-15T15:09:30.292Z,2.93
2018-06-15T15:11:58.695Z,2.70
2018-06-15T15:14:27.078Z,2.67
2018-06-15T15:16:55.579Z,2.80
2018-06-15T15:19:24.070Z,3.53
2018-06-15T15:21:52.524Z,4.50
2018-06-15T15:24:21.023Z,2.60
2018-06-15T15:26:49.764Z,3.57
2018-06-15T15:29:18.232Z,4.00
2018-06-15T15:31:46.845Z,2.50
2018-06-15T15:34:15.346Z,4.67
2018-06-15T15:36:43.897Z,5.60
2018-06-15T15:39:12.395Z,3.57
2018-06-15T15:41:40.807Z,3.53
2018-06-15T15:44:09.439Z,3.73
2018-06-15T15:46:37.781Z,4.00
2018-06-15T15:49:06.164Z,3.17
2018-06-15T15:51:34.613Z,2.70
2018-06-15T15:54:02.979Z,2.77
2018-06-15T15:56:31.352Z,2.80
2018-06-15T15:58:59.775Z,3.50
2018-06-15T16:01:28.188Z,3.37
2018-06-15T16:03:56.575Z,2.43
2018-06-15T16:06:25.025Z,2.50
2018-06-15T16:08:53.416Z,2.50
2018-06-15T16:11:21.793Z,2.60
2018-06-15T16:13:50.171Z,3.07
2018-06-15T16:16:18.676Z,2.97
2018-06-15T16:18:47.092Z,3.80
2018-06-15T16:21:15.568Z,4.20
2018-06-15T16:23:43.991Z,4.00
2018-06-15T16:26:12.931Z,3.10
2018-06-15T16:28:41.361Z,2.30
2018-06-15T16:31:09.747Z,3.27
2018-06-15T16:33:38.159Z,4.83
2018-06-15T16:36:06.647Z,2.17
2018-06-15T16:38:35.035Z,2.93
2018-06-15T16:41:03.522Z,2.57
2018-06-15T16:43:31.887Z,2.77
2018-06-15T16:46:00.427Z,2.50
2018-06-15T16:48:28.932Z,2.80
2018-06-15T16:50:57.348Z,2.77
2018-06-15T16:53:25.760Z,2.03
2018-06-15T16:55:54.151Z,2.67
2018-06-15T16:58:22.523Z,3.00
2018-06-15T17:00:50.900Z,5.00
2018-06-15T17:03:19.285Z,5.60
2018-06-15T17:05:47.704Z,3.90
2018-06-15T17:08:16.495Z,4.07
2018-06-15T17:10:44.824Z,3.97
2018-06-15T17:13:13.231Z,1.97
2018-06-15T17:15:41.719Z,2.10
2018-06-15T17:18:10.112Z,2.87
2018-06-15T17:20:38.575Z,5.17
2018-06-15T17:23:07.034Z,2.47
2018-06-15T17:25:35.372Z,5.70
2018-06-15T17:28:03.771Z,4.93
2018-06-15T17:30:32.146Z,4.70
2018-06-15T17:33:00.579Z,4.03
2018-06-15T17:35:30.057Z,3.03
2018-06-15T17:37:58.419Z,5.47
2018-06-15T17:40:27.345Z,5.57
2018-06-15T17:42:55.652Z,3.27
2018-06-15T17:45:24.076Z,3.37
2018-06-15T17:47:52.467Z,3.73
2018-06-15T17:50:20.928Z,4.50
2018-06-15T17:52:49.329Z,4.57
2018-06-15T17:55:17.689Z,3.17
2018-06-15T17:57:46.102Z,4.47
2018-06-15T18:00:14.546Z,5.67
2018-06-15T18:02:42.876Z,5.50
2018-06-15T18:05:11.230Z,4.73
2018-06-15T18:07:39.608Z,4.10
2018-06-15T18:10:08.007Z,5.23
2018-06-15T18:12:36.412Z,5.87
2018-06-15T18:15:04.836Z,6.57
2018-06-15T18:17:33.538Z,5.53
2018-06-15T18:20:01.912Z,5.40
2018-06-15T18:22:30.284Z,5.47
2018-06-15T18:24:58.687Z,5.13
2018-06-15T18:27:27.123Z,4.37
2018-06-15T18:29:55.565Z,3.33
2018-06-15T18:32:24.016Z,7.33
2018-06-15T18:34:52.367Z,6.53
2018-06-15T18:37:20.795Z,3.83
2018-06-15T18:39:49.185Z,8.67
2018-06-15T18:42:17.581Z,3.93
2018-06-15T18:44:46.057Z,3.53
2018-06-15T18:47:14.483Z,4.67
2018-06-15T18:49:42.837Z,6.30
2018-06-15T18:52:11.195Z,5.20
2018-06-15T18:54:39.673Z,5.83
2018-06-15T18:57:08.111Z,5.27
2018-06-15T18:59:36.908Z,6.93
2018-06-15T19:02:05.595Z,3.17
2018-06-15T19:04:34.108Z,3.77
2018-06-15T19:07:02.541Z,6.47
2018-06-15T19:09:30.942Z,7.47
2018-06-15T19:11:59.872Z,5.30
2018-06-15T19:14:28.313Z,5.40
2018-06-15T19:16:56.761Z,4.00
2018-06-15T19:19:25.160Z,6.30
2018-06-15T19:21:53.567Z,5.33
2018-06-15T19:24:22.050Z,3.87
2018-06-15T19:26:50.437Z,5.07
2018-06-15T19:29:18.803Z,4.17
2018-06-15T19:31:47.293Z,4.03
2018-06-15T19:34:15.684Z,4.00
2018-06-15T19:36:44.056Z,3.40
2018-06-15T19:39:12.455Z,5.63
2018-06-15T19:41:40.903Z,7.50
2018-06-15T19:44:09.249Z,3.70
2018-06-15T19:46:37.667Z,4.97
2018-06-15T19:49:06.164Z,5.43
2018-06-15T19:51:34.575Z,3.43
2018-06-15T19:54:02.948Z,5.40
2018-06-15T19:56:31.299Z,4.97
2018-06-15T19:58:59.807Z,5.83
2018-06-15T20:01:28.102Z,5.90
2018-06-15T20:03:56.431Z,4.30
2018-06-15T20:06:24.919Z,4.30
2018-06-15T20:08:53.248Z,9.07
2018-06-15T20:11:21.653Z,5.63
2018-06-15T20:13:50.037Z,4.97
2018-06-15T20:16:18.445Z,6.97
2018-06-15T20:18:46.807Z,3.90
2018-06-15T20:21:15.184Z,3.27
2018-06-15T20:23:43.760Z,4.60
2018-06-15T20:26:12.385Z,18.87
2018-06-15T20:28:40.844Z,5.83
2018-06-15T20:31:09.330Z,8.70
2018-06-15T20:33:37.700Z,7.00
2018-06-15T20:36:07.323Z,4.63
2018-06-15T20:38:35.819Z,58.73
2018-06-15T20:41:04.229Z,8.43
2018-06-15T20:43:32.627Z,6.80
2018-06-15T20:46:01.011Z,4.53
2018-06-15T20:48:29.786Z,4.27
2018-06-15T20:50:58.163Z,5.53
2018-06-15T20:53:26.560Z,5.70
2018-06-15T20:55:54.890Z,7.57
2018-06-15T20:58:23.222Z,6.00
2018-06-15T21:00:51.761Z,6.63
2018-06-15T21:03:20.287Z,7.27
2018-06-15T21:05:48.771Z,4.80
2018-06-15T21:08:18.131Z,5.93
2018-06-15T21:10:46.587Z,6.37
2018-06-15T21:13:14.999Z,4.47
2018-06-15T21:15:43.402Z,5.47
2018-06-15T21:18:11.887Z,6.80
2018-06-15T21:20:40.310Z,4.83
2018-06-15T21:23:08.827Z,6.20
2018-06-15T21:25:37.180Z,7.27
2018-06-15T21:28:05.507Z,7.07
2018-06-15T21:30:33.849Z,7.93
2018-06-15T21:33:02.244Z,4.93
2018-06-15T21:35:30.619Z,6.67
2018-06-15T21:37:59.023Z,6.03
2018-06-15T21:40:27.455Z,6.00
2018-06-15T21:42:55.831Z,7.47
2018-06-15T21:45:24.258Z,7.20
2018-06-15T21:47:53.422Z,6.37
2018-06-15T21:50:21.827Z,7.73
2018-06-15T21:52:50.163Z,5.60
2018-06-15T21:55:18.553Z,10.40
2018-06-15T21:57:46.889Z,7.97
2018-06-15T22:00:15.323Z,7.63
2018-06-15T22:02:43.701Z,5.47
2018-06-15T22:05:12.093Z,11.13
2018-06-15T22:07:40.491Z,6.93
2018-06-15T22:10:08.987Z,8.70
2018-06-15T22:12:37.427Z,8.20
2018-06-15T22:15:05.895Z,8.83
2018-06-15T22:17:34.261Z,6.83
2018-06-15T22:20:02.628Z,7.27
2018-06-15T22:22:31.010Z,6.90
2018-06-15T22:24:59.391Z,7.97
2018-06-15T22:27:27.935Z,8.20
2018-06-15T22:29:56.445Z,9.83
2018-06-15T22:32:24.869Z,8.67
2018-06-15T22:34:53.279Z,7.10
2018-06-15T22:37:21.707Z,7.53
2018-06-15T22:39:50.187Z,6.07
2018-06-15T22:42:18.604Z,7.03
2018-06-15T22:44:46.951Z,6.80
2018-06-15T22:47:15.375Z,10.33
2018-06-15T22:49:43.797Z,8.60
2018-06-15T22:52:12.146Z,7.17
2018-06-15T22:54:40.545Z,8.80
2018-06-15T22:57:08.922Z,6.33
2018-06-15T22:59:37.296Z,8.97
2018-06-15T23:02:05.723Z,8.33
2018-06-15T23:04:34.175Z,11.97
2018-06-15T23:07:02.531Z,8.63
2018-06-15T23:09:31.019Z,7.40
2018-06-15T23:11:59.468Z,9.40
2018-06-15T23:14:27.827Z,8.20
2018-06-15T23:16:56.295Z,6.90
2018-06-15T23:19:24.731Z,7.07
2018-06-15T23:21:53.093Z,8.53
2018-06-15T23:24:21.394Z,7.97
2018-06-15T23:26:49.816Z,7.73
2018-06-15T23:29:18.164Z,8.57
2018-06-15T23:31:46.665Z,10.00
2018-06-15T23:34:15.027Z,8.00
2018-06-15T23:36:43.419Z,7.40
2018-06-15T23:39:11.792Z,8.63
2018-06-15T23:41:40.267Z,7.30
2018-06-15T23:44:08.696Z,6.10
2018-06-15T23:46:37.203Z,7.20
2018-06-15T23:49:05.639Z,7.83
2018-06-15T23:51:33.948Z,8.53
2018-06-15T23:54:02.396Z,5.43
2018-06-15T23:56:30.784Z,8.03
2018-06-15T23:58:59.155Z,7.27
